6791500 - Cedar River near Spalding

Latitude:
41.71163º N
Longitude:
98.44693º W
Type:
Stream
River Basin:
Loup
Source:
NeDNR

Info! The graphs are now plotted with new date ranges.
Warning! If you see this please check date range (or) the data is not available.

 to 


—— Provisional Data Subject to Revision ——

Instantaneous Discharge

6791500 - Cedar River near Spalding
- Ice Possible      - Equipment Malfunction
- Seasonal      -Rating in Development
- Measured



Instantaneous Stage

6791500 - Cedar River near Spalding
- Ice Possible      - Equipment Malfunction
- Seasonal      -Rating in Development
- Measured



 to 


—— Provisional Data Subject to Revision ——

Daily Discharge

6791500 - Cedar River near Spalding
- Approved      - Provisional


Export
Date Time Discharge (cfs) Stage (feet) Shift (feet)
08/27/2019 14:15 617 3.90 0.08
07/30/2019 20:08 169 2.71 0.06
07/03/2019 14:24 217 2.86 0.11
06/05/2019 9:40 670 4.09 -0.01
05/13/2019 10:53 534 3.73 0.09
04/08/2019 13:30 362 3.26 0.16
03/15/2019 13:15 3,420 6.79 0.08
03/12/2019 10:16 199 2.95 -0.06
02/13/2019 14:00 230 3.48 -0.47
01/15/2019 13:22 249 3.13 -0.05
12/19/2018 14:08 283 3.26 -0.07
11/19/2018 15:24 221 3.08 -0.10
10/17/2018 14:20 310 3.39 -0.12
09/27/2018 2:56 215 3.13 -0.17
08/28/2018 14:30 276 3.27 -0.10
08/21/2018 12:00 531 3.94 -0.13
07/31/2018 10:30 408 3.68 -0.15
07/06/2018 9:30 615 4.22 -0.24
06/27/2018 16:52 213 3.08 -0.13
06/06/2018 14:30 155 2.83 -0.13
05/22/2018 12:45 429 3.80 -0.22
05/08/2018 20:50 177 2.99 -0.19
04/11/2018 19:48 200 3.04 -0.14
03/14/2018 19:11 254 3.21 -0.11
02/14/2018 12:45 190 3.67 -0.81
01/30/2018 9:29 171 2.95 -0.18
01/17/2018 10:00 148 3.72 -1.05
12/18/2017 9:47 195 2.95 -0.07
11/20/2017 14:29 191 2.95 -0.09
10/25/2017 14:52 212 2.93 0.02
10/04/2017 15:00 456 3.87 -0.22
09/26/2017 14:27 277 3.38 -0.21
08/29/2017 14:38 183 3.01 -0.18
07/31/2017 15:45 131 2.79 -0.22
06/29/2017 11:46 130 2.74 -0.18
06/08/2017 15:21 172 2.89 -0.11
05/09/2017 17:03 285 3.36 -0.16
04/11/2017 14:20 165 2.89 -0.14
03/13/2017 13:37 162 2.97 -0.24
02/13/2017 12:48 193 3.14 -0.27
01/18/2017 10:30 186 3.92 -1.08
12/20/2016 12:30 98.4 3.59 -1.24
11/21/2016 15:52 173 2.95 -0.17
10/24/2016 10:21 147 2.94 -0.28
09/29/2016 14:14 136 2.84 -0.24
08/30/2016 15:57 219 3.25 -0.28
08/04/2016 11:42 181 3.19 -0.37
07/07/2016 15:43 209 3.15 -0.22
06/08/2016 15:14 142 2.76 -0.13
05/05/2016 16:15 723 4.38 -0.21
04/21/2016 10:37 495 3.76 -0.02
04/13/2016 11:20 129 2.82 -0.26
03/14/2016 14:30 138 2.84 -0.23
02/16/2016 14:10 180 3.05 -0.23
01/20/2016 9:26 155 3.02 -0.32
12/21/2015 12:42 173 2.94 -0.16
11/23/2015 13:39 242 3.24 -0.18
10/27/2015 14:56 152 2.95 -0.26
09/30/2015 13:38 129 2.83 -0.27
09/03/2015 13:20 115 2.72 -0.25
08/05/2015 16:30 121 2.79 -0.28
06/30/2015 15:57 140 2.83 -0.21
06/03/2015 15:31 167 2.94 -0.18
05/19/2015 15:07 173 2.94 -0.15
04/13/2015 14:19 160 2.92 -0.20
03/18/2015 15:33 163 2.95 -0.21
02/24/2015 13:09 155 2.95 -0.25
01/21/2015 11:24 176 2.96 -0.16
12/23/2014 12:15 192 3.04 -0.18
11/24/2014 12:15 169 2.99 -0.23
10/28/2014 15:22 160 2.87 -0.15
10/02/2014 14:28 169 2.95 -0.18
09/10/2014 14:24 161 2.89 -0.16
08/07/2014 17:24 143 2.84 -0.20
07/09/2014 16:20 146 2.84 -0.19
06/04/2014 9:56 304 3.40 -0.14
05/13/2014 9:40 193 2.99 -0.12
04/16/2014 14:04 193 3.01 -0.13
03/10/2014 13:24 172 2.91 -0.13
02/18/2014 13:27 186 2.91 -0.07
01/22/2014 10:26 145 3.45 -0.80
12/17/2013 11:00 179 3.74 -0.93
11/25/2013 9:40 150 2.78 -0.11
10/30/2013 16:24 200 2.98 -0.08
10/10/2013 10:32 151 2.78 -0.10
09/06/2013 10:54 133 2.65 -0.07
08/08/2013 18:23 186 2.88 -0.04
07/10/2013 10:05 136 2.67 -0.07
06/12/2013 10:38 171 2.88 -0.11
05/30/2013 11:15 489 3.90 -0.18
05/14/2013 13:21 174 2.86 -0.07
04/16/2013 15:37 206 3.00 -0.07
03/20/2013 10:23 158 2.77 -0.05
02/12/2013 12:30 174 2.81 -0.02
01/23/2013 14:49 166 2.90 -0.15
01/09/2013 11:34 170 2.81 -0.04
12/28/2012 12:30 152 3.59 -0.91
11/26/2012 13:26 169 2.81 -0.04
10/31/2012 11:05 166 2.79 -0.04
10/03/2012 13:57 155 2.74 -0.04
09/06/2012 13:03 130 2.62 0.94
08/09/2012 10:14 135 2.61 0.98
07/11/2012 10:38 140 2.65 0.96
06/12/2012 16:52 146 2.68 0.95
05/16/2012 16:02 185 2.83 0.95
04/17/2012 14:46 413 3.61 0.82
03/20/2012 14:45 219 2.91 0.98
02/27/2012 13:54 228 2.94 0.98
02/02/2012 13:45 195 2.90 0.91
01/24/2012 11:45 170 3.70 0.03
12/19/2011 13:41 194 2.90 0.91
11/28/2011 11:07 198 2.87 0.95
11/03/2011 10:38 195 2.82 0.99
10/06/2011 12:56 162 2.79 0.90
09/09/2011 14:11 168 2.76 0.96
08/17/2011 10:08 252 3.10 0.89
08/12/2011 13:30 351 3.54 0.73
07/19/2011 10:34 279 3.13 0.95
06/14/2011 14:53 191 2.86 0.94
05/26/2011 13:45 706 4.14 0.81
04/21/2011 14:44 460 3.68 0.84
03/22/2011 14:28 258 3.04 0.97
02/15/2011 12:32 287 3.17 0.93
01/24/2011 13:00 158 3.70 -0.02
12/27/2010 12:45 178 2.73 1.03
12/01/2010 14:29 228 3.04 0.88
11/02/2010 15:14 221 2.87 1.03
10/06/2010 14:31 192 2.66 1.15
09/14/2010 16:33 173 2.67 1.07
08/12/2010 12:57 199 2.68 1.15
07/13/2010 16:07 674 4.23 0.68
06/15/2010 12:35 3,840 7.25 -0.15
06/14/2010 14:15 4,590 7.40 0.00
06/13/2010 9:30 1,960 6.78 -0.77
06/08/2010 10:35 895 5.38 -0.43
05/18/2010 15:01 171 3.70 -0.29
04/23/2010 11:11 250 3.99 -0.32
03/22/2010 13:57 304 4.07 -0.26
03/10/2010 13:45 657 4.71 -0.14
02/24/2010 9:32 176 3.74 -0.32
02/02/2010 10:22 212 4.60 -1.06
01/05/2010 9:30 164 4.69 -1.31
12/01/2009 11:50 189 3.72 -0.26
11/05/2009 9:15 381 4.42 -0.39
10/07/2009 15:04 172 3.64 -0.22
09/17/2009 13:14 147 3.60 -0.28
08/11/2009 15:50 114 3.48 -0.29
07/16/2009 12:14 160 3.69 -0.32
06/18/2009 15:13 227 4.01 -0.42
05/22/2009 9:35 161 3.60 -0.23
04/28/2009 16:03 205 3.71 -0.19
04/02/2009 11:15 227 3.79 -0.19
02/17/2009 13:00 215 3.83 -0.28
02/02/2009 9:45 188 3.79 -0.33
01/06/2009 9:55 184 4.78 -1.33
12/02/2008 8:57 167 3.74 -0.34
11/05/2008 12:24 184 3.79 -0.34
10/14/2008 13:27 212 3.92 -0.38
09/11/2008 15:28 171 3.73 -0.31
08/13/2008 15:25 200 3.81 -0.31
07/18/2008 9:53 133 3.49 -0.22
06/18/2008 13:20 183 3.71 -0.27
05/28/2008 14:47 767 5.04 -0.29
05/22/2008 12:42 161 3.59 -0.22
04/22/2008 13:35 186 3.75 -0.29
03/27/2008 12:56 160 3.66 -0.29
03/04/2008 13:51 236 4.00 -0.38
02/06/2008 11:32 160 4.73 -1.36
01/07/2008 14:23 166 3.82 -0.43
12/04/2007 10:59 171 3.77 -0.36
11/13/2007 13:38 153 3.76 -0.42
10/09/2007 13:35 186 3.91 -0.46
09/12/2007 14:45 157 3.75 -0.39
08/14/2007 15:06 141 3.66 -0.36
07/17/2007 16:53 117 3.62 -0.42
06/19/2007 15:44 274 4.22 -0.49
05/22/2007 10:32 138 3.57 -0.28
05/03/2007 14:21 270 3.96 -0.24
04/26/2007 12:29 1,020 5.49 -0.37
04/25/2007 14:10 908 5.33 -0.36
03/28/2007 14:56 366 4.46 -0.47
03/05/2007 13:40 218 3.94 -0.38
02/21/2007 14:18 299 4.27 -0.47
02/01/2007 13:15 89.3 4.38 -1.32
01/09/2007 13:28 165 3.81 -0.42
12/14/2006 12:55 152 3.82 -0.48
11/16/2006 10:45 170 3.80 -0.39
11/06/2006 9:24 134 3.75 -0.48
10/11/2006 15:00 141 3.74 -0.44
09/12/2006 15:38 161 3.78 -0.41
09/11/2006 13:11 226 3.98 -0.39
08/15/2006 9:36 132 3.62 -0.35
07/18/2006 9:30 108 3.49 -0.33
06/20/2006 9:51 148 3.67 -0.35
05/24/2006 9:44 155 3.62 -0.27
05/02/2006 10:19 160 3.74 -0.37
03/30/2006 9:51 259 4.13 -0.44
03/07/2006 13:45 154 3.79 -0.45
01/30/2006 10:23 148 3.69 -0.36
01/04/2006 14:40 177 3.79 -0.36
12/08/2005 14:00 114 4.33 -1.14
11/07/2005 10:12 152 3.74 -0.40
10/13/2005 11:33 167 3.75 -0.35
09/14/2005 11:36 151 3.68 -0.35
08/16/2005 10:47 150 3.69 -0.35
07/21/2005 11:45 131 3.59 -0.33
06/22/2005 15:45 214 3.94 -0.39
06/15/2005 15:05 392 4.56 -0.51
05/24/2005 15:50 158 3.73 -0.37
04/26/2005 11:30 283 4.14 -0.39
03/28/2005 11:35 194 3.87 -0.39
03/03/2005 12:00 181 3.76 -0.32
02/03/2005 10:05 162 3.76 -0.38
01/10/2005 11:30 132 4.25 -0.99
12/08/2004 11:35 165 3.66 -0.27
11/16/2004 10:55 145 3.63 -0.32
10/13/2004 10:40 151 3.66 -0.33
09/14/2004 11:25 133 3.55 -0.28
Export



Download Rating Curve
  
1.30     0.00
1.31     0.83
1.32     1.67
1.33     2.50
1.34     3.33
1.35     4.17
1.36     5.00
1.37     5.83
1.38     6.67
1.39     7.50
1.40     8.33
1.41     9.17
1.42     10.00
1.43     10.83
1.44     11.67
1.45     12.50
1.46     13.33
1.47     14.17
1.48     15.00
1.49     15.83
1.50     16.67
1.51     17.50
1.52     18.33
1.53     19.17
1.54     20.00
1.55     20.83
1.56     21.67
1.57     22.50
1.58     23.33
1.59     24.17
1.60     25.00
1.61     25.83
1.62     26.67
1.63     27.50
1.64     28.33
1.65     29.17
1.66     30.00
1.67     30.83
1.68     31.67
1.69     32.50
1.70     33.33
1.71     34.17
1.72     35.00
1.73     35.83
1.74     36.67
1.75     37.50
1.76     38.33
1.77     39.17
1.78     40.00
1.79     40.83
1.80     41.67
1.81     42.50
1.82     43.33
1.83     44.17
1.84     45.00
1.85     45.83
1.86     46.67
1.87     47.50
1.88     48.33
1.89     49.17
1.90     50.00
1.91     50.84
1.92     51.70
1.93     52.56
1.94     53.44
1.95     54.32
1.96     55.21
1.97     56.12
1.98     57.03
1.99     57.95
2.00     58.89
2.01     59.83
2.02     60.79
2.03     61.75
2.04     62.73
2.05     63.72
2.06     64.71
2.07     65.72
2.08     66.74
2.09     67.77
2.10     68.81
2.11     69.86
2.12     70.92
2.13     71.99
2.14     73.07
2.15     74.17
2.16     75.28
2.17     76.39
2.18     77.52
2.19     78.66
2.20     79.81
2.21     80.98
2.22     82.15
2.23     83.34
2.24     84.54
2.25     85.75
2.26     86.97
2.27     88.20
2.28     89.45
2.29     90.70
Download Rating Curve